Chennai, India
Current Conditions -  °F | °C
As of 6:40 AM on Sunday 26 Oct 2014 (Local Time) from VOMM Reporting Station
Haze Haze  
Wind Chill: 79°   Ceiling: Unl
Heat Index: 83°   Visibility: 2.5mi
Dew Point: 79°   Wind: 0mph
Humidity: 100%   Direction: NA
Pressure: 29.91"   Gusts: NA
Location:  13.06°N, 80.25°E
Report Text: VOMM 260140Z 00000KT 4000 BR SCT018 FEW025CB 26/26 Q1013 NOSIG
Loading
Personal Weather Stations






























Interactive Weather Map
Tropical Storm Tracking
New forecast layout! Learn more

10-Day Weather Forecast

Advertisements
Track Severe Weather on mobile